createdAt,value
2023-01-05T00:00:13.034Z,0.00
2023-01-05T00:03:16.933Z,0.10
2023-01-05T00:06:18.805Z,0.35
2023-01-05T00:09:21.862Z,0.03
2023-01-05T00:12:42.407Z,0.22
2023-01-05T00:16:02.763Z,0.00
2023-01-05T00:19:22.968Z,0.20
2023-01-05T00:22:30.540Z,0.20
2023-01-05T00:25:37.497Z,0.15
2023-01-05T00:28:39.117Z,0.05
2023-01-05T00:31:40.992Z,0.08
2023-01-05T00:34:42.746Z,0.00
2023-01-05T00:37:45.374Z,0.10
2023-01-05T00:40:49.578Z,0.00
2023-01-05T00:43:51.174Z,0.00
2023-01-05T00:46:52.881Z,0.00
2023-01-05T00:49:54.829Z,0.03
2023-01-05T00:52:56.520Z,0.10
2023-01-05T00:56:00.127Z,0.10
2023-01-05T00:59:02.535Z,0.20
2023-01-05T01:02:04.455Z,0.00
2023-01-05T01:05:07.200Z,0.20
2023-01-05T01:08:08.813Z,0.20
2023-01-05T01:11:11.924Z,0.15
2023-01-05T01:14:13.938Z,0.10
2023-01-05T01:17:16.047Z,0.10
2023-01-05T01:20:18.774Z,0.05
2023-01-05T01:23:20.534Z,0.10
2023-01-05T01:26:23.597Z,0.25
2023-01-05T01:29:25.242Z,0.08
2023-01-05T01:32:26.946Z,0.10
2023-01-05T01:35:28.522Z,0.00
2023-01-05T01:38:30.560Z,0.08
2023-01-05T01:41:33.881Z,0.05
2023-01-05T01:44:53.713Z,0.17
2023-01-05T01:48:00.497Z,0.08
2023-01-05T01:51:08.329Z,0.10
2023-01-05T01:54:13.584Z,0.10
2023-01-05T01:57:16.606Z,0.10
2023-01-05T02:00:19.352Z,0.32
2023-01-05T02:03:20.961Z,0.13
2023-01-05T02:06:23.829Z,0.05
2023-01-05T02:09:25.960Z,0.20
2023-01-05T02:12:38.104Z,0.25
2023-01-05T02:15:48.284Z,0.05
2023-01-05T02:19:23.874Z,0.10
2023-01-05T02:26:08.097Z,0.00
2023-01-05T02:29:32.223Z,0.10
2023-01-05T02:32:42.927Z,0.20
2023-01-05T02:35:54.614Z,0.10
2023-01-05T02:39:03.085Z,0.10
2023-01-05T02:42:11.185Z,0.10
2023-01-05T02:45:16.516Z,0.20
2023-01-05T02:48:21.814Z,0.10
2023-01-05T02:51:28.507Z,0.10
2023-01-05T02:54:34.374Z,0.10
2023-01-05T02:57:47.219Z,0.00
2023-01-05T03:00:56.930Z,0.00
2023-01-05T03:04:09.612Z,0.00
2023-01-05T03:07:14.550Z,0.10
2023-01-05T03:13:41.772Z,0.13
2023-01-05T03:16:47.955Z,0.00
2023-01-05T03:19:53.873Z,0.10
2023-01-05T03:23:19.301Z,0.00
2023-01-05T03:26:39.767Z,0.00
2023-01-05T03:30:01.469Z,0.00
2023-01-05T03:33:28.520Z,0.00
2023-01-05T03:36:39.260Z,0.00
2023-01-05T03:39:43.466Z,0.00
2023-01-05T03:42:47.209Z,0.00
2023-01-05T03:45:53.969Z,0.10
2023-01-05T03:48:59.476Z,0.10
2023-01-05T03:52:03.899Z,0.00
2023-01-05T03:55:06.144Z,0.10
2023-01-05T03:58:08.311Z,0.05
2023-01-05T04:01:10.939Z,0.00
2023-01-05T04:04:13.630Z,0.35
2023-01-05T04:07:16.865Z,0.00
2023-01-05T04:10:19.095Z,0.05
2023-01-05T04:13:20.994Z,0.00
2023-01-05T04:16:23.202Z,0.00
2023-01-05T04:19:27.038Z,0.10
2023-01-05T04:22:31.542Z,0.10
2023-01-05T04:25:33.219Z,0.00
2023-01-05T04:28:46.226Z,0.00
2023-01-05T04:31:48.147Z,0.00
2023-01-05T04:34:50.046Z,0.00
2023-01-05T04:37:58.902Z,0.20
2023-01-05T04:41:01.139Z,0.30
2023-01-05T04:44:03.297Z,0.10
2023-01-05T04:47:05.107Z,0.00
2023-01-05T04:50:09.790Z,0.08
2023-01-05T04:53:14.310Z,0.00
2023-01-05T04:56:17.790Z,0.40
2023-01-05T04:59:20.786Z,0.28
2023-01-05T05:02:23.157Z,0.55
2023-01-05T05:05:25.885Z,0.40
2023-01-05T05:08:30.760Z,0.50
2023-01-05T05:11:34.720Z,0.52
2023-01-05T05:14:36.461Z,0.35
2023-01-05T05:17:38.122Z,0.30
2023-01-05T05:20:43.418Z,0.40
2023-01-05T05:23:47.592Z,0.60
2023-01-05T05:26:53.888Z,0.32
2023-01-05T05:29:55.493Z,0.45
2023-01-05T05:32:57.190Z,0.10
2023-01-05T05:35:58.837Z,1.10
2023-01-05T05:39:01.978Z,0.90
2023-01-05T05:42:03.796Z,0.40
2023-01-05T05:45:06.578Z,0.65
2023-01-05T05:48:08.568Z,0.93
2023-01-05T05:51:10.663Z,1.15
2023-01-05T05:54:13.752Z,0.45
2023-01-05T05:57:17.554Z,0.45
2023-01-05T06:00:19.424Z,0.40
2023-01-05T06:03:21.186Z,0.50
2023-01-05T06:06:22.953Z,0.70
2023-01-05T06:09:26.676Z,0.50
2023-01-05T06:12:28.469Z,0.50
2023-01-05T06:15:30.538Z,0.60
2023-01-05T06:18:32.203Z,0.98
2023-01-05T06:21:33.918Z,0.75
2023-01-05T06:24:36.946Z,0.68
2023-01-05T06:27:38.751Z,0.50
2023-01-05T06:30:40.369Z,0.88
2023-01-05T06:33:42.023Z,1.17
2023-01-05T06:36:43.601Z,0.20
2023-01-05T06:39:46.517Z,0.85
2023-01-05T06:42:50.861Z,1.23
2023-01-05T06:45:52.920Z,0.40
2023-01-05T06:48:54.687Z,0.82
2023-01-05T06:51:56.398Z,0.63
2023-01-05T06:54:59.362Z,1.08
2023-01-05T06:58:01.554Z,0.60
2023-01-05T07:01:03.423Z,0.80
2023-01-05T07:04:05.423Z,0.60
2023-01-05T07:07:07.175Z,0.65
2023-01-05T07:10:10.456Z,0.52
2023-01-05T07:13:12.111Z,0.40
2023-01-05T07:16:13.746Z,0.95
2023-01-05T07:19:15.346Z,1.60
2023-01-05T07:22:17.072Z,0.35
2023-01-05T07:25:20.001Z,0.70
2023-01-05T07:28:21.630Z,0.50
2023-01-05T07:31:23.294Z,1.08
2023-01-05T07:34:24.953Z,0.77
2023-01-05T07:37:26.561Z,0.47
2023-01-05T07:40:29.511Z,0.47
2023-01-05T07:43:31.175Z,0.63
2023-01-05T07:46:32.848Z,0.73
2023-01-05T07:49:34.459Z,1.10
2023-01-05T07:52:36.155Z,0.55
2023-01-05T07:55:39.184Z,1.23
2023-01-05T07:58:42.759Z,1.20
2023-01-05T08:01:45.108Z,0.60
2023-01-05T08:04:47.213Z,0.43
2023-01-05T08:07:49.137Z,0.68
2023-01-05T08:10:52.206Z,1.23
2023-01-05T08:13:59.868Z,0.47
2023-01-05T08:17:01.782Z,0.77
2023-01-05T08:20:03.758Z,0.20
2023-01-05T08:23:05.419Z,0.52
2023-01-05T08:26:11.119Z,1.08
2023-01-05T08:29:12.777Z,0.30
2023-01-05T08:32:14.538Z,0.60
2023-01-05T08:35:16.471Z,1.27
2023-01-05T08:38:20.570Z,0.30
2023-01-05T08:41:25.610Z,0.45
2023-01-05T08:44:27.265Z,0.13
2023-01-05T08:47:28.903Z,0.90
2023-01-05T08:50:31.654Z,0.30
2023-01-05T08:53:34.573Z,0.30
2023-01-05T08:56:39.325Z,0.90
2023-01-05T08:59:41.641Z,0.30
2023-01-05T09:02:43.626Z,0.40
2023-01-05T09:05:45.527Z,0.68
2023-01-05T09:08:47.555Z,0.52
2023-01-05T09:11:50.663Z,0.65
2023-01-05T09:14:54.367Z,1.00
2023-01-05T09:17:56.074Z,0.73
2023-01-05T09:20:58.590Z,0.50
2023-01-05T09:24:00.272Z,0.45
2023-01-05T09:27:05.470Z,0.55
2023-01-05T09:30:09.161Z,0.57
2023-01-05T09:33:10.938Z,0.40
2023-01-05T09:36:13.916Z,0.80
2023-01-05T09:39:15.709Z,0.43
2023-01-05T09:42:21.824Z,0.70
2023-01-05T09:45:26.775Z,0.25
2023-01-05T09:48:35.483Z,0.28
2023-01-05T09:51:37.213Z,0.43
2023-01-05T09:54:40.042Z,1.20
2023-01-05T09:57:48.195Z,0.68
2023-01-05T10:01:04.553Z,0.22
2023-01-05T10:04:11.450Z,0.85
2023-01-05T10:07:20.893Z,0.68
2023-01-05T10:10:32.350Z,0.80
2023-01-05T10:13:39.148Z,1.17
2023-01-05T10:16:44.074Z,1.10
2023-01-05T10:22:58.128Z,0.70
2023-01-05T10:26:06.233Z,0.28
2023-01-05T10:29:11.982Z,1.92
2023-01-05T10:32:24.747Z,0.98
2023-01-05T10:36:00.152Z,0.20
2023-01-05T10:39:07.943Z,0.30
2023-01-05T10:42:16.446Z,1.08
2023-01-05T10:45:21.011Z,0.90
2023-01-05T10:48:30.154Z,0.90
2023-01-05T10:51:33.619Z,0.50
2023-01-05T10:54:38.337Z,1.10
2023-01-05T10:57:41.136Z,0.93
2023-01-05T11:00:44.225Z,0.68
2023-01-05T11:07:10.865Z,0.60
2023-01-05T11:10:21.060Z,0.45
2023-01-05T11:13:33.483Z,0.28
2023-01-05T11:16:38.223Z,1.02
2023-01-05T11:19:44.437Z,0.77
2023-01-05T11:22:48.250Z,0.73
2023-01-05T11:25:50.056Z,0.70
2023-01-05T11:28:59.606Z,0.50
2023-01-05T11:32:05.286Z,0.70
2023-01-05T11:35:19.078Z,0.90
2023-01-05T11:38:23.988Z,0.68
2023-01-05T11:41:28.634Z,0.60
2023-01-05T11:44:31.690Z,1.33
2023-01-05T11:47:43.995Z,0.20
2023-01-05T11:50:49.134Z,0.75
2023-01-05T11:53:50.866Z,0.98
2023-01-05T11:57:06.906Z,0.57
2023-01-05T12:00:23.680Z,0.80
2023-01-05T12:03:44.245Z,0.32
2023-01-05T12:06:56.383Z,0.68
2023-01-05T12:10:03.052Z,0.45
2023-01-05T12:13:16.062Z,0.32
2023-01-05T12:16:32.386Z,0.75
2023-01-05T12:19:55.955Z,1.05
2023-01-05T12:23:17.501Z,0.45
2023-01-05T12:26:26.256Z,0.30
2023-01-05T12:37:07.211Z,0.55
2023-01-05T12:40:37.297Z,0.85
2023-01-05T12:43:48.698Z,0.63
2023-01-05T12:47:04.732Z,0.63
2023-01-05T12:50:22.863Z,0.90
2023-01-05T12:53:37.678Z,0.65
2023-01-05T12:56:44.265Z,1.70
2023-01-05T12:59:52.729Z,0.38
2023-01-05T13:02:57.420Z,0.65
2023-01-05T13:06:04.557Z,1.10
2023-01-05T13:09:16.090Z,0.50
2023-01-05T13:12:17.836Z,0.65
2023-01-05T13:15:25.002Z,1.20
2023-01-05T13:18:27.047Z,0.88
2023-01-05T13:21:30.731Z,0.50
2023-01-05T13:24:39.603Z,0.52
2023-01-05T13:27:41.286Z,0.65
2023-01-05T13:30:53.161Z,0.43
2023-01-05T13:34:13.247Z,1.38
2023-01-05T13:37:32.748Z,0.80
2023-01-05T13:40:51.471Z,0.85
2023-01-05T13:44:26.839Z,1.00
2023-01-05T13:51:15.239Z,0.47
2023-01-05T13:54:20.721Z,1.15
2023-01-05T13:57:26.846Z,0.82
2023-01-05T14:00:31.522Z,0.82
2023-01-05T14:03:38.944Z,0.80
2023-01-05T14:06:44.685Z,0.98
2023-01-05T14:09:49.553Z,0.65
2023-01-05T14:15:57.671Z,1.00
2023-01-05T14:19:12.717Z,1.00
2023-01-05T14:22:37.195Z,1.48
2023-01-05T14:25:48.845Z,0.80
2023-01-05T14:28:51.872Z,0.98
2023-01-05T14:31:53.574Z,0.90
2023-01-05T14:38:07.341Z,1.27
2023-01-05T14:41:26.588Z,0.80
2023-01-05T14:44:35.980Z,0.63
2023-01-05T14:47:42.131Z,0.98
2023-01-05T14:50:44.802Z,0.73
2023-01-05T14:53:47.732Z,1.00
2023-01-05T14:57:21.319Z,1.13
2023-01-05T15:00:36.450Z,2.08
2023-01-05T15:03:47.275Z,1.10
2023-01-05T15:07:02.903Z,1.20
2023-01-05T15:10:16.781Z,0.80
2023-01-05T15:14:10.138Z,1.33
2023-01-05T15:17:42.039Z,0.85
2023-01-05T15:21:19.253Z,0.98
2023-01-05T15:25:01.343Z,0.60
2023-01-05T15:28:24.880Z,1.13
2023-01-05T15:31:36.900Z,0.98
2023-01-05T15:34:46.007Z,0.75
2023-01-05T15:37:48.776Z,0.77
2023-01-05T15:40:59.159Z,1.00
2023-01-05T15:44:00.987Z,0.73
2023-01-05T15:47:04.781Z,1.75
2023-01-05T15:50:18.078Z,0.70
2023-01-05T15:53:25.374Z,1.15
2023-01-05T15:56:31.034Z,1.15
2023-01-05T15:59:38.014Z,0.93
2023-01-05T16:02:39.736Z,1.48
2023-01-05T16:05:42.856Z,0.70
2023-01-05T16:08:47.331Z,0.45
2023-01-05T16:11:50.926Z,1.02
2023-01-05T16:14:57.708Z,0.65
2023-01-05T16:18:00.161Z,1.20
2023-01-05T16:21:10.291Z,0.70
2023-01-05T16:24:19.698Z,0.98
2023-01-05T16:27:21.682Z,1.00
2023-01-05T16:30:30.116Z,0.70
2023-01-05T16:33:38.527Z,1.20
2023-01-05T16:36:58.856Z,0.50
2023-01-05T16:40:01.564Z,1.45
2023-01-05T16:43:03.422Z,0.98
2023-01-05T16:46:28.788Z,0.75
2023-01-05T16:49:41.164Z,0.88
2023-01-05T16:52:53.753Z,0.90
2023-01-05T16:55:57.335Z,1.02
2023-01-05T16:59:02.618Z,1.17
2023-01-05T17:02:34.178Z,1.00
2023-01-05T17:05:35.850Z,1.23
2023-01-05T17:08:39.057Z,1.13
2023-01-05T17:11:41.064Z,0.90
2023-01-05T17:14:44.375Z,0.75
2023-01-05T17:17:45.989Z,1.60
2023-01-05T17:20:48.759Z,2.30
2023-01-05T17:23:53.944Z,1.38
2023-01-05T17:26:55.676Z,2.10
2023-01-05T17:29:57.305Z,1.27
2023-01-05T17:32:59.163Z,1.15
2023-01-05T17:36:01.873Z,1.60
2023-01-05T17:39:05.166Z,1.90
2023-01-05T17:42:25.696Z,1.52
2023-01-05T17:45:27.455Z,1.52
2023-01-05T17:48:29.108Z,1.00
2023-01-05T17:51:31.182Z,1.15
2023-01-05T17:54:34.215Z,1.10
2023-01-05T17:57:36.022Z,1.15
2023-01-05T18:00:42.582Z,0.85
2023-01-05T18:03:44.315Z,1.20
2023-01-05T18:06:45.958Z,1.00
2023-01-05T18:09:48.919Z,1.38
2023-01-05T18:12:50.969Z,1.15
2023-01-05T18:15:53.094Z,1.52
2023-01-05T18:18:55.169Z,1.10
2023-01-05T18:21:58.140Z,1.00
2023-01-05T18:25:01.293Z,1.52
2023-01-05T18:28:02.991Z,1.58
2023-01-05T18:31:09.899Z,1.98
2023-01-05T18:34:11.612Z,1.25
2023-01-05T18:37:21.320Z,1.83
2023-01-05T18:40:24.904Z,2.15
2023-01-05T18:43:26.604Z,2.75
2023-01-05T18:46:29.453Z,2.08
2023-01-05T18:49:31.175Z,1.30
2023-01-05T18:52:34.101Z,0.80
2023-01-05T18:55:40.303Z,1.52
2023-01-05T18:58:42.554Z,1.48
2023-01-05T19:01:44.753Z,0.90
2023-01-05T19:04:46.585Z,1.20
2023-01-05T19:07:50.944Z,0.98
2023-01-05T19:10:53.986Z,1.05
2023-01-05T19:13:57.148Z,0.90
2023-01-05T19:16:59.020Z,0.60
2023-01-05T19:20:00.680Z,1.10
2023-01-05T19:23:02.312Z,1.20
2023-01-05T19:26:07.008Z,0.70
2023-01-05T19:29:11.317Z,1.15
2023-01-05T19:32:13.215Z,1.02
2023-01-05T19:35:15.326Z,1.20
2023-01-05T19:38:17.193Z,1.20
2023-01-05T19:41:22.580Z,0.90
2023-01-05T19:44:24.360Z,1.33
2023-01-05T19:47:26.333Z,0.95
2023-01-05T19:50:27.953Z,1.15
2023-01-05T19:53:30.056Z,1.00
2023-01-05T19:56:34.758Z,0.70
2023-01-05T19:59:36.364Z,1.13
2023-01-05T20:02:37.997Z,1.40
2023-01-05T20:05:39.798Z,0.95
2023-01-05T20:08:42.048Z,1.13
2023-01-05T20:11:48.723Z,1.23
2023-01-05T20:14:50.353Z,1.00
2023-01-05T20:17:52.102Z,0.65
2023-01-05T20:20:53.704Z,1.70
2023-01-05T20:23:55.359Z,1.17
2023-01-05T20:27:00.844Z,1.20
2023-01-05T20:30:03.226Z,1.50
2023-01-05T20:33:05.367Z,1.25
2023-01-05T20:36:07.267Z,0.88
2023-01-05T20:39:10.626Z,0.73
2023-01-05T20:42:14.017Z,0.47
2023-01-05T20:45:16.150Z,0.60
2023-01-05T20:48:17.873Z,0.75
2023-01-05T20:51:23.949Z,0.70
2023-01-05T20:54:25.770Z,0.90
2023-01-05T20:57:28.867Z,0.85
2023-01-05T21:00:30.918Z,0.98
2023-01-05T21:03:32.726Z,1.05
2023-01-05T21:06:35.038Z,0.73
2023-01-05T21:09:36.999Z,0.93
2023-01-05T21:12:40.383Z,0.68
2023-01-05T21:15:42.227Z,0.65
2023-01-05T21:18:44.907Z,0.55
2023-01-05T21:21:48.001Z,1.17
2023-01-05T21:24:49.650Z,1.42
2023-01-05T21:27:52.654Z,0.80
2023-01-05T21:30:54.351Z,0.63
2023-01-05T21:33:56.025Z,0.55
2023-01-05T21:36:57.701Z,0.70
2023-01-05T21:40:02.545Z,0.88
2023-01-05T21:43:05.766Z,0.65
2023-01-05T21:46:10.063Z,0.40
2023-01-05T21:49:12.551Z,0.55
2023-01-05T21:52:35.903Z,0.60
2023-01-05T21:55:56.127Z,0.52
2023-01-05T21:59:00.078Z,0.40
2023-01-05T22:02:01.856Z,0.50
2023-01-05T22:05:03.944Z,1.92
2023-01-05T22:08:05.621Z,0.65
2023-01-05T22:11:07.460Z,0.65
2023-01-05T22:14:10.548Z,0.70
2023-01-05T22:17:12.286Z,0.25
2023-01-05T22:20:16.462Z,0.70
2023-01-05T22:23:18.523Z,0.50
2023-01-05T22:26:20.551Z,0.70
2023-01-05T22:29:24.265Z,0.50
2023-01-05T22:32:25.849Z,0.63
2023-01-05T22:35:27.766Z,0.73
2023-01-05T22:38:30.272Z,0.75
2023-01-05T22:41:31.981Z,0.65
2023-01-05T22:44:35.021Z,0.70
2023-01-05T22:47:36.664Z,0.40
2023-01-05T22:50:38.283Z,0.88
2023-01-05T22:53:40.695Z,0.63
2023-01-05T22:56:42.382Z,0.52
2023-01-05T22:59:45.469Z,0.52
2023-01-05T23:02:47.344Z,0.70
2023-01-05T23:05:49.018Z,0.70
2023-01-05T23:08:51.895Z,0.82
2023-01-05T23:11:53.669Z,1.10
2023-01-05T23:14:56.903Z,0.73
2023-01-05T23:17:58.601Z,0.68
2023-01-05T23:21:03.190Z,1.02
2023-01-05T23:24:05.238Z,1.05
2023-01-05T23:27:06.863Z,1.15
2023-01-05T23:30:12.147Z,1.10
2023-01-05T23:33:14.915Z,0.50
2023-01-05T23:36:20.884Z,1.10
2023-01-05T23:39:22.623Z,0.70
2023-01-05T23:42:43.140Z,0.80
2023-01-05T23:45:46.924Z,1.05
2023-01-05T23:48:49.446Z,1.00
2023-01-05T23:51:51.242Z,1.08
2023-01-05T23:54:52.827Z,0.88
2023-01-05T23:57:54.782Z,0.90
